Time;durP1;ratioP1;P1;durP2;ratioP2;P2;SDS_P1;SDS_P2;PMS_P1;PMS_P2;Temp;Humidity;BMP_temperature;BMP_pressure;BME280_temperature;BME280_humidity;BME280_pressure;Samples;Min_cycle;Max_cycle;Signal;HPM_P1;HPM_P2
2022/10/26 00:01:11;;;;;;;25.15;21.05;;;;;;;13.14;88.48;99818.73;1791420;79;21092;-73
2022/10/26 00:03:38;;;;;;;27.77;23.15;;;;;;;13.14;88.50;99826.69;1789863;79;20997;-73
2022/10/26 00:06:14;;;;;;;31.37;23.67;;;;;;;13.14;88.53;99826.69;1783482;79;21099;-73
2022/10/26 00:08:41;;;;;;;28.12;23.15;;;;;;;13.13;88.58;99825.52;1775346;79;21479;-73
2022/10/26 00:11:08;;;;;;;26.65;22.40;;;;;;;13.11;88.63;99821.66;1787818;79;21841;-72
2022/10/26 00:13:36;;;;;;;28.92;23.70;;;;;;;13.10;88.69;99827.13;1778955;79;20992;-73
2022/10/26 00:16:09;;;;;;;25.75;22.90;;;;;;;13.10;88.72;99819.17;1796585;79;21348;-73
2022/10/26 00:18:36;;;;;;;26.90;21.57;;;;;;;13.10;88.76;99815.19;1781990;79;21379;-73
2022/10/26 00:21:04;;;;;;;24.82;20.20;;;;;;;13.11;88.78;99820.34;1770175;79;21018;-72
2022/10/26 00:23:32;;;;;;;24.92;22.22;;;;;;;13.11;88.84;99824.31;1782985;78;21828;-73
2022/10/26 00:25:58;;;;;;;24.00;20.35;;;;;;;13.10;88.88;99827.13;1793955;78;21072;-73
2022/10/26 00:28:25;;;;;;;25.48;21.48;;;;;;;13.10;88.91;99830.61;1775562;79;21001;-73
2022/10/26 00:30:52;;;;;;;25.27;21.57;;;;;;;13.10;88.97;99832.42;1772945;79;21023;-72
2022/10/26 00:33:18;;;;;;;23.32;20.90;;;;;;;13.11;89.00;99836.25;1776024;79;21043;-72
2022/10/26 00:35:53;;;;;;;25.60;21.95;;;;;;;13.09;88.99;99831.59;1773535;78;21810;-72
2022/10/26 00:38:19;;;;;;;25.05;22.20;;;;;;;13.09;89.06;99832.09;1763212;79;20993;-72
2022/10/26 00:40:47;;;;;;;24.70;21.60;;;;;;;13.08;89.10;99833.91;1804641;77;21044;-72
2022/10/26 00:43:23;;;;;;;24.80;22.17;;;;;;;13.08;89.12;99834.41;1787916;78;21012;-72
2022/10/26 00:45:49;;;;;;;28.60;22.42;;;;;;;13.06;89.15;99830.58;1787601;78;21064;-72
2022/10/26 00:48:30;;;;;;;25.12;22.40;;;;;;;13.08;89.11;99833.91;1774443;79;21829;-73
2022/10/26 00:50:58;;;;;;;25.80;20.77;;;;;;;13.10;89.11;99837.73;1769861;79;20993;-72
2022/10/26 00:53:27;;;;;;;24.57;20.85;;;;;;;13.10;89.06;99837.23;1787822;79;21123;-73
2022/10/26 00:55:53;;;;;;;25.40;21.97;;;;;;;13.10;89.04;99833.75;1774717;78;21077;-73
2022/10/26 00:58:19;;;;;;;25.27;22.52;;;;;;;13.10;89.06;99835.91;1772450;79;21474;-73
2022/10/26 01:00:47;;;;;;;25.55;22.30;;;;;;;13.12;89.03;99837.08;1795508;77;21499;-73
2022/10/26 01:03:14;;;;;;;25.45;21.27;;;;;;;13.12;88.98;99836.62;1792064;78;21000;-74
2022/10/26 01:05:44;;;;;;;26.87;22.32;;;;;;;13.13;88.95;99838.28;1771965;79;20954;-73
2022/10/26 01:08:11;;;;;;;24.57;21.35;;;;;;;13.14;88.93;99840.44;1774091;79;20950;-73
2022/10/26 01:10:38;;;;;;;23.42;20.88;;;;;;;13.17;88.91;99850.73;1739300;80;21036;-73
2022/10/26 01:13:05;;;;;;;26.93;20.68;;;;;;;13.16;88.91;99853.88;1702661;82;21972;-73
2022/10/26 01:15:44;;;;;;;25.57;21.30;;;;;;;13.15;88.85;99853.54;1786674;79;21586;-75
2022/10/26 01:18:39;;;;;;;27.67;23.42;;;;;;;13.14;88.87;99849.72;1775126;79;20968;-73
2022/10/26 01:21:55;;;;;;;23.87;20.82;;;;;;;13.12;88.86;99847.22;1775825;79;21331;-73
2022/10/26 01:24:50;;;;;;;25.68;19.35;;;;;;;13.13;88.83;99841.42;1772103;79;21520;-73
2022/10/26 01:27:40;;;;;;;26.82;22.20;;;;;;;13.11;88.82;99838.06;1770838;79;21893;-73
2022/10/26 01:30:27;;;;;;;29.25;23.52;;;;;;;13.11;88.82;99832.77;1782552;79;21008;-73
2022/10/26 01:33:26;;;;;;;28.65;22.77;;;;;;;13.09;88.86;99828.95;1768576;79;21110;-73
2022/10/26 01:36:15;;;;;;;26.33;21.87;;;;;;;13.10;88.87;99827.13;1782282;79;20988;-72
2022/10/26 01:39:01;;;;;;;28.73;21.52;;;;;;;13.07;88.85;99817.66;1769872;79;21053;-75
2022/10/26 01:41:36;;;;;;;29.40;23.38;;;;;;;13.06;88.91;99822.62;1760513;79;21949;-72
2022/10/26 01:44:07;;;;;;;31.23;23.32;;;;;;;13.07;88.88;99824.78;1785070;79;21464;-73
2022/10/26 01:46:38;;;;;;;32.45;24.60;;;;;;;13.06;88.92;99821.80;1759269;79;21498;-73
2022/10/26 01:49:11;;;;;;;32.40;24.40;;;;;;;13.05;88.89;99821.45;1747141;80;21021;-72
2022/10/26 01:51:42;;;;;;;34.88;23.98;;;;;;;13.03;88.93;99821.61;1776784;78;21005;-72
2022/10/26 01:54:09;;;;;;;30.60;23.20;;;;;;;13.05;88.96;99832.06;1760734;78;22041;-73
2022/10/26 01:56:39;;;;;;;33.28;23.32;;;;;;;13.04;88.93;99834.37;1748671;79;21073;-72
2022/10/26 01:59:36;;;;;;;32.45;23.42;;;;;;;13.03;88.94;99835.36;1771956;79;20981;-72
2022/10/26 02:02:31;;;;;;;31.25;22.73;;;;;;;13.03;88.98;99834.03;1740582;80;20966;-72
2022/10/26 02:05:32;;;;;;;34.63;23.27;;;;;;;13.04;89.00;99831.23;1723244;82;21026;-72
2022/10/26 02:08:28;;;;;;;30.60;21.87;;;;;;;13.04;88.98;99832.55;1662579;84;22052;-72
2022/10/26 02:11:24;;;;;;;33.45;23.22;;;;;;;13.03;88.99;99832.22;1776078;79;21007;-72
2022/10/26 02:14:35;;;;;;;27.73;21.20;;;;;;;13.03;88.96;99836.20;1786002;78;20954;-72
2022/10/26 02:17:09;;;;;;;28.15;21.33;;;;;;;13.03;88.95;99838.02;1786830;79;21032;-73
2022/10/26 02:19:51;;;;;;;31.25;20.72;;;;;;;13.01;88.95;99833.33;1773679;78;21047;-72
2022/10/26 02:22:33;;;;;;;31.85;21.50;;;;;;;12.99;88.94;99838.78;1772579;79;21857;-72
2022/10/26 02:25:06;;;;;;;31.00;20.48;;;;;;;12.98;88.99;99836.29;1787998;79;21067;-73
2022/10/26 02:27:37;;;;;;;32.48;21.10;;;;;;;12.99;89.04;99836.14;1764052;79;21060;-72
2022/10/26 02:30:06;;;;;;;33.98;21.73;;;;;;;12.99;89.07;99826.86;1724470;80;20963;-72
2022/10/26 02:32:34;;;;;;;31.93;21.65;;;;;;;13.00;89.06;99830.34;1796392;78;21096;-72
2022/10/26 02:35:01;;;;;;;35.75;23.12;;;;;;;12.97;89.04;99835.46;1785964;79;21885;-72
2022/10/26 02:37:28;;;;;;;33.60;23.02;;;;;;;12.96;89.09;99834.29;1744814;81;21433;-72
2022/10/26 02:39:55;;;;;;;31.17;20.68;;;;;;;12.95;89.13;99836.11;1749048;79;34137;-72
2022/10/26 02:42:22;;;;;;;29.42;20.48;;;;;;;12.93;89.13;99838.05;1780604;78;21005;-72
2022/10/26 02:44:56;;;;;;;32.28;20.92;;;;;;;12.92;89.17;99843.51;1775419;79;21039;-72
2022/10/26 02:47:23;;;;;;;;;;;;;;;12.89;89.25;99842.83;1768841;79;21644;-73
2022/10/26 02:49:49;;;;;;;27.40;19.80;;;;;;;12.89;89.26;99844.65;1771962;79;20431;-72
2022/10/26 02:52:42;;;;;;;28.10;19.15;;;;;;;12.88;89.29;99845.14;1726915;81;21028;-73
2022/10/26 02:55:19;;;;;;;26.80;18.40;;;;;;;12.91;89.29;99844.00;1725531;80;21656;-72
2022/10/26 02:57:50;;;;;;;24.35;17.82;;;;;;;12.87;89.33;99842.64;1766862;79;21555;-73
2022/10/26 03:00:17;;;;;;;27.35;18.55;;;;;;;12.87;89.33;99853.25;1768507;78;21912;-72
2022/10/26 03:02:45;;;;;;;25.15;17.65;;;;;;;12.87;89.35;99868.66;1767747;79;20949;-73
2022/10/26 03:05:24;;;;;;;22.02;16.50;;;;;;;12.87;89.35;99859.88;1763774;80;21178;-72
2022/10/26 03:07:51;;;;;;;88.00;54.00;;;;;;;12.89;89.40;99861.38;1741182;80;21151;-72
2022/10/26 03:10:18;;;;;;;46.85;32.20;;;;;;;12.88;89.35;99855.74;1775172;79;20991;-73
2022/10/26 03:12:45;;;;;;;25.20;19.67;;;;;;;12.89;89.34;99864.53;1786355;78;22424;-73
2022/10/26 03:15:12;;;;;;;19.82;16.73;;;;;;;12.90;89.32;99856.91;1777167;79;20976;-73
2022/10/26 03:17:40;;;;;;;19.27;16.25;;;;;;;12.91;89.29;99861.23;1775641;79;21069;-73
2022/10/26 03:20:08;;;;;;;17.73;15.45;;;;;;;12.93;89.27;99873.00;1781294;79;21065;-72
2022/10/26 03:22:35;;;;;;;18.55;15.50;;;;;;;12.93;89.24;99864.55;1788009;79;21527;-72
2022/10/26 03:25:05;;;;;;;18.95;16.07;;;;;;;12.92;89.17;99860.24;1737266;80;22548;-74
2022/10/26 03:27:33;;;;;;;16.52;14.83;;;;;;;12.90;89.11;99871.49;1786194;79;21392;-73
2022/10/26 03:30:00;;;;;;;18.10;14.55;;;;;;;12.89;89.09;99861.88;1769014;79;20993;-72
2022/10/26 03:32:26;;;;;;;16.80;13.70;;;;;;;12.87;89.07;99865.17;1773380;79;21013;-73
2022/10/26 03:34:53;;;;;;;17.82;13.40;;;;;;;12.88;89.04;99867.67;1771943;78;20950;-73
2022/10/26 03:37:20;;;;;;;28.10;19.73;;;;;;;12.87;89.00;99866.01;1778415;79;21923;-72
2022/10/26 03:39:46;;;;;;;119.75;68.40;;;;;;;12.87;88.90;99862.52;1764262;79;21088;-73
2022/10/26 03:42:13;;;;;;;175.30;95.67;;;;;;;12.87;88.90;99866.01;1797068;79;20945;-72
2022/10/26 03:44:39;;;;;;;140.30;64.25;;;;;;;12.89;88.85;99868.50;1783961;79;21139;-72
2022/10/26 03:47:06;;;;;;;86.82;42.90;;;;;;;12.89;88.81;99864.03;1783220;79;21083;-73
2022/10/26 03:49:33;;;;;;;85.90;42.83;;;;;;;12.89;88.67;99871.16;1768371;79;21904;-72
2022/10/26 03:52:01;;;;;;;173.25;80.17;;;;;;;12.85;88.55;99868.47;1787584;79;21572;-73
2022/10/26 03:54:28;;;;;;;145.15;59.73;;;;;;;12.83;88.58;99873.89;1763846;78;21069;-74
2022/10/26 03:56:54;;;;;;;287.90;126.47;;;;;;;12.82;88.59;99874.88;1793547;78;20997;-73
2022/10/26 03:59:21;;;;;;;157.90;78.40;;;;;;;12.85;88.55;99881.72;1800948;77;21036;-72
2022/10/26 04:01:47;;;;;;;126.78;67.00;;;;;;;12.86;88.51;99884.71;1797050;78;22021;-72
2022/10/26 04:04:15;;;;;;;68.62;40.23;;;;;;;12.88;88.46;99885.39;1754451;80;21002;-71
2022/10/26 04:06:42;;;;;;;54.10;37.88;;;;;;;12.82;88.31;99890.78;1708737;81;21370;-72
2022/10/26 04:09:10;;;;;;;44.00;33.38;;;;;;;12.78;88.31;99886.77;1727147;81;21023;-72
2022/10/26 04:11:36;;;;;;;40.88;29.50;;;;;;;12.77;88.26;99885.59;1742624;81;21054;-72
2022/10/26 04:14:02;;;;;;;37.35;28.70;;;;;;;12.73;88.27;99885.04;1729673;80;22538;-72
2022/10/26 04:16:29;;;;;;;26.07;20.77;;;;;;;12.72;88.31;99887.34;1721019;81;21059;-72
2022/10/26 04:18:57;;;;;;;20.80;17.82;;;;;;;12.72;88.30;99889.16;1748124;81;21459;-72
2022/10/26 04:21:24;;;;;;;19.23;14.33;;;;;;;12.72;88.29;99897.95;1754883;80;21504;-72
2022/10/26 04:23:51;;;;;;;158.27;86.28;;;;;;;12.67;88.02;99886.97;1723385;81;21340;-73
2022/10/26 04:26:18;;;;;;;238.82;106.97;;;;;;;12.60;87.92;99896.48;1721071;82;21933;-73
2022/10/26 04:28:45;;;;;;;182.47;81.97;;;;;;;12.58;87.97;99895.80;1806782;78;20922;-72
2022/10/26 04:31:11;;;;;;;80.65;41.85;;;;;;;12.58;87.97;99904.58;1800091;78;20993;-72
2022/10/26 04:33:40;;;;;;;122.80;57.00;;;;;;;12.57;87.84;99900.75;1755097;80;20997;-72
2022/10/26 04:36:07;;;;;;;164.72;64.00;;;;;;;12.54;87.75;99907.16;1770283;79;21014;-72
2022/10/26 04:38:33;;;;;;;56.90;27.65;;;;;;;12.50;87.59;99904.96;1795078;79;21981;-73
2022/10/26 04:41:00;;;;;;;53.35;29.05;;;;;;;12.47;87.49;99906.09;1742927;80;21135;-73
2022/10/26 04:43:27;;;;;;;75.90;37.50;;;;;;;12.42;87.34;99904.36;1801956;79;21646;-72
2022/10/26 04:45:57;;;;;;;51.08;26.95;;;;;;;12.40;87.21;99905.00;1789206;79;21043;-73
2022/10/26 04:48:23;;;;;;;23.18;16.02;;;;;;;12.38;87.12;99906.12;1782647;78;21235;-72
2022/10/26 04:50:51;;;;;;;38.75;22.50;;;;;;;12.32;87.01;99900.41;1758866;79;21075;-72
2022/10/26 04:53:18;;;;;;;39.58;26.27;;;;;;;12.32;87.02;99905.71;1787509;79;20993;-73
2022/10/26 04:55:46;;;;;;;45.45;29.75;;;;;;;12.31;86.99;99905.86;1758419;79;21403;-72
2022/10/26 04:58:13;;;;;;;24.23;17.98;;;;;;;12.30;86.95;99906.35;1762576;79;20946;-73
2022/10/26 05:00:39;;;;;;;36.42;24.25;;;;;;;12.30;86.90;99910.81;1792364;78;21040;-72
2022/10/26 05:03:06;;;;;;;29.18;21.35;;;;;;;12.30;86.86;99917.44;1791696;78;21918;-72
2022/10/26 05:05:34;;;;;;;35.55;24.07;;;;;;;12.27;86.78;99909.30;1769357;79;21397;-72
2022/10/26 05:08:02;;;;;;;34.40;23.87;;;;;;;12.28;86.79;99921.56;1781832;79;21067;-73
2022/10/26 05:10:29;;;;;;;37.75;25.82;;;;;;;12.27;86.80;99925.67;1792891;79;20981;-72
2022/10/26 05:12:58;;;;;;;45.12;30.52;;;;;;;12.28;86.79;99926.85;1778680;78;21042;-72
2022/10/26 05:15:26;;;;;;;36.45;29.55;;;;;;;12.28;86.79;99924.20;1775718;78;21886;-72
2022/10/26 05:17:57;;;;;;;29.12;24.60;;;;;;;12.30;86.79;99932.83;1780166;79;21067;-72
2022/10/26 05:20:29;;;;;;;20.57;18.35;;;;;;;12.30;86.77;99935.48;1761420;79;21044;-72
2022/10/26 05:22:57;;;;;;;15.50;13.83;;;;;;;12.29;86.76;99935.14;1760834;79;21419;-72
2022/10/26 05:25:24;;;;;;;15.63;13.95;;;;;;;12.30;86.83;99934.16;1728596;80;21419;-72
2022/10/26 05:27:51;;;;;;;16.95;13.65;;;;;;;12.29;86.85;99938.28;1723624;82;21853;-72
2022/10/26 05:30:19;;;;;;;14.90;13.03;;;;;;;12.31;86.89;99945.58;1720501;81;21080;-72
2022/10/26 05:32:56;;;;;;;15.53;12.98;;;;;;;12.29;86.94;99940.44;1737232;81;21057;-73
2022/10/26 05:35:24;;;;;;;15.10;12.13;;;;;;;12.31;86.95;99943.77;1699938;81;21452;-72
2022/10/26 05:37:52;;;;;;;19.55;15.98;;;;;;;12.32;86.98;99946.76;1706322;82;20977;-72
2022/10/26 05:40:19;;;;;;;99.52;50.08;;;;;;;12.35;86.99;99946.13;1706934;82;21890;-74
2022/10/26 05:42:46;;;;;;;183.97;75.62;;;;;;;12.34;87.00;99945.28;1713829;81;21132;-72
2022/10/26 05:45:13;;;;;;;79.58;35.38;;;;;;;12.37;87.03;99954.29;1686417;83;21088;-73
2022/10/26 05:47:41;;;;;;;96.53;37.48;;;;;;;12.39;87.08;99945.70;1715238;81;21009;-72
2022/10/26 05:50:08;;;;;;;142.98;51.85;;;;;;;12.39;87.02;99956.79;1741405;81;21116;-72
2022/10/26 05:52:42;;;;;;;103.58;37.33;;;;;;;12.40;87.10;99964.59;1742091;79;21918;-71
2022/10/26 05:55:16;;;;;;;167.55;60.10;;;;;;;12.43;87.13;99961.64;1769506;79;20999;-69
2022/10/26 05:57:44;;;;;;;177.12;63.90;;;;;;;12.47;87.15;99970.98;1771271;78;21555;-70
2022/10/26 06:00:21;;;;;;;67.92;30.68;;;;;;;12.49;87.06;99973.00;1749259;80;20998;-69
2022/10/26 06:03:24;;;;;;;86.35;35.08;;;;;;;12.51;87.09;99967.06;1774270;78;21004;-69
2022/10/26 06:05:55;;;;;;;143.97;52.67;;;;;;;12.53;86.98;99974.37;1781495;79;21801;-69
2022/10/26 06:08:25;;;;;;;95.65;43.55;;;;;;;12.55;86.99;99979.06;1766051;79;21079;-69
2022/10/26 06:10:53;;;;;;;55.73;32.88;;;;;;;12.56;86.93;99978.08;1772181;78;21400;-69
2022/10/26 06:13:20;;;;;;;601.98;70.62;;;;;;;12.58;86.83;99983.22;1774881;79;21200;-67
2022/10/26 06:15:55;;;;;;;83.92;39.33;;;;;;;12.59;86.82;99983.56;1768277;79;21105;-68
2022/10/26 06:19:04;;;;;;;74.07;39.48;;;;;;;12.61;86.79;99983.77;1775987;79;21858;-69
2022/10/26 06:22:10;;;;;;;126.18;31.42;;;;;;;12.63;86.66;99983.61;1752604;79;21082;-71
2022/10/26 06:25:11;;;;;;;231.07;35.23;;;;;;;12.65;86.61;99984.33;1771578;79;27317;-68
2022/10/26 06:28:19;;;;;;;16.60;12.20;;;;;;;12.68;86.55;99991.98;1768031;78;21492;-68
2022/10/26 06:30:47;;;;;;;147.47;28.80;;;;;;;12.69;86.43;99990.99;1761256;79;21538;-69
2022/10/26 06:33:13;;;;;;;19.87;14.10;;;;;;;12.75;86.50;99994.89;1774946;77;22099;-71
2022/10/26 06:35:48;;;;;;;16.42;14.55;;;;;;;12.78;86.46;99998.08;1793297;79;21017;-72
2022/10/26 06:38:18;;;;;;;16.57;13.78;;;;;;;12.83;86.44;100002.92;1782304;78;22530;-70
2022/10/26 06:40:48;;;;;;;14.80;11.55;;;;;;;12.88;86.37;100003.34;1777797;78;21115;-69
2022/10/26 06:43:27;;;;;;;11.60;10.40;;;;;;;12.89;86.22;100005.84;1749710;78;21080;-72
2022/10/26 06:46:04;;;;;;;11.78;10.58;;;;;;;12.92;85.97;100006.52;1791408;78;22248;-72
2022/10/26 06:48:36;;;;;;;11.83;10.08;;;;;;;12.93;85.91;100011.67;1796062;78;21099;-73
2022/10/26 06:51:03;;;;;;;10.78;9.38;;;;;;;12.94;85.81;100013.37;1791663;77;21014;-74
2022/10/26 06:53:39;;;;;;;27.90;14.53;;;;;;;12.96;85.77;100018.03;1765438;79;20981;-75
2022/10/26 06:56:06;;;;;;;1999.90;201.40;;;;;;;13.01;85.67;100018.91;1763752;79;21076;-75
2022/10/26 06:58:34;;;;;;;54.20;20.05;;;;;;;13.05;85.64;100022.47;1802382;78;22288;-78
2022/10/26 07:01:01;;;;;;;13.85;10.72;;;;;;;13.10;85.61;100025.50;1784678;79;21150;-81
2022/10/26 07:03:28;;;;;;;10.08;8.68;;;;;;;13.17;85.56;100028.41;1791243;77;21451;-82
2022/10/26 07:05:54;;;;;;;9.28;7.70;;;;;;;13.23;85.50;100021.72;1786925;78;21041;-82
2022/10/26 07:08:20;;;;;;;9.03;7.50;;;;;;;13.28;85.26;100023.42;1772530;79;20993;-75
2022/10/26 07:10:47;;;;;;;157.70;21.55;;;;;;;13.32;85.10;100024.81;1792229;78;22976;-74
2022/10/26 07:13:14;;;;;;;916.38;89.42;;;;;;;13.34;84.80;100024.17;1785091;78;21479;-74
2022/10/26 07:15:42;;;;;;;11.28;7.83;;;;;;;13.36;84.69;100019.05;1786181;78;21523;-74
2022/10/26 07:18:09;;;;;;;73.75;12.50;;;;;;;13.37;84.20;100016.74;1795236;78;21464;-75
2022/10/26 07:20:38;;;;;;;22.67;8.65;;;;;;;13.38;84.07;100017.58;1773087;78;21009;-74
2022/10/26 07:23:14;;;;;;;8.53;6.25;;;;;;;13.40;83.90;100018.25;1776761;77;21941;-73
2022/10/26 07:25:39;;;;;;;10.13;6.40;;;;;;;13.42;83.78;100022.94;1770392;78;21169;-75
2022/10/26 07:28:08;;;;;;;6.53;5.92;;;;;;;13.45;83.49;100020.81;1791437;77;21072;-74
2022/10/26 07:30:36;;;;;;;8.43;5.78;;;;;;;13.41;82.52;100022.11;1794662;78;21052;-75
2022/10/26 07:33:11;;;;;;;7.47;5.65;;;;;;;13.42;82.62;100026.43;1791713;78;21095;-74
2022/10/26 07:35:38;;;;;;;303.27;28.10;;;;;;;13.51;82.69;100026.50;1744999;79;21797;-75
2022/10/26 07:38:04;;;;;;;226.90;25.00;;;;;;;13.62;82.63;100024.49;1793153;78;21641;-77
2022/10/26 07:40:31;;;;;;;254.80;23.22;;;;;;;13.70;81.55;100019.73;1777207;79;21537;-75
2022/10/26 07:42:59;;;;;;;20.65;6.37;;;;;;;13.83;81.61;100019.38;1764091;78;21063;-74
2022/10/26 07:45:27;;;;;;;202.87;21.62;;;;;;;13.93;80.98;100024.13;1776266;79;21515;-78
2022/10/26 07:47:53;;;;;;;177.27;16.80;;;;;;;13.92;79.71;100027.28;1795056;78;21924;-78
2022/10/26 07:50:20;;;;;;;6.33;4.15;;;;;;;13.89;79.10;100038.17;1793652;77;21008;-76
2022/10/26 07:52:47;;;;;;;35.90;6.80;;;;;;;13.84;78.14;100025.87;1791993;78;20997;-75
2022/10/26 07:55:15;;;;;;;5.72;4.20;;;;;;;13.84;78.17;100025.03;1784149;79;21028;-78
2022/10/26 07:57:41;;;;;;;5.55;4.45;;;;;;;13.89;78.05;100018.27;1794073;78;21064;-78
2022/10/26 08:00:09;;;;;;;5.78;3.77;;;;;;;13.89;77.68;100026.23;1797705;78;21739;-79
2022/10/26 08:02:36;;;;;;;5.60;3.98;;;;;;;13.91;77.29;100033.58;1774675;79;21020;-81
2022/10/26 08:05:04;;;;;;;6.60;4.03;;;;;;;13.91;77.12;100036.72;1785151;79;21143;-80
2022/10/26 08:07:32;;;;;;;6.65;4.60;;;;;;;13.90;76.79;100039.88;1743938;79;21827;-77
2022/10/26 08:09:59;;;;;;;4.45;4.05;;;;;;;13.84;76.48;100040.47;1791028;78;21060;-77
2022/10/26 08:12:26;;;;;;;5.05;4.55;;;;;;;13.82;76.55;100041.61;1778378;78;21958;-79
2022/10/26 08:14:53;;;;;;;6.75;5.22;;;;;;;13.78;76.55;100041.55;1798502;78;22107;-79
2022/10/26 08:17:21;;;;;;;5.65;5.08;;;;;;;13.75;76.65;100040.87;1754166;79;21143;-78
2022/10/26 08:19:48;;;;;;;7.05;5.22;;;;;;;13.71;76.74;100050.13;1807959;78;21254;-81
2022/10/26 08:22:15;;;;;;;5.70;5.10;;;;;;;13.71;76.84;100046.65;1780219;78;21035;-76
2022/10/26 08:24:45;;;;;;;5.50;5.00;;;;;;;13.72;76.98;100047.81;1759689;79;22639;-79
2022/10/26 08:27:10;;;;;;;449.35;42.00;;;;;;;13.77;77.04;100052.66;1781465;79;20996;-78
2022/10/26 08:29:37;;;;;;;180.27;19.10;;;;;;;13.75;76.94;100051.48;1770419;78;21044;-79
2022/10/26 08:32:04;;;;;;;12.43;5.50;;;;;;;13.72;76.87;100057.60;1757643;79;21081;-77
2022/10/26 08:34:32;;;;;;;5.50;5.00;;;;;;;13.69;76.84;100060.53;1786597;79;21069;-78
2022/10/26 08:36:59;;;;;;;6.03;4.62;;;;;;;13.69;76.80;100060.53;1768323;79;21894;-77
2022/10/26 08:39:27;;;;;;;5.60;4.62;;;;;;;13.70;76.88;100063.53;1797227;79;20975;-77
2022/10/26 08:41:59;;;;;;;5.62;4.97;;;;;;;13.73;76.72;100069.39;1801707;79;20997;-74
2022/10/26 08:44:32;;;;;;;4.33;3.70;;;;;;;13.75;76.75;100071.40;1796242;79;20985;-75
2022/10/26 08:47:05;;;;;;;5.45;4.80;;;;;;;13.77;76.77;100070.41;1776691;79;20964;-76
2022/10/26 08:49:47;;;;;;;5.50;4.95;;;;;;;13.80;76.67;100076.28;1767067;79;21735;-74
2022/10/26 08:52:18;;;;;;;6.87;4.97;;;;;;;13.82;76.41;100083.59;1773696;79;21568;-76
2022/10/26 08:54:54;;;;;;;6.25;4.95;;;;;;;13.82;76.25;100085.41;1714562;82;21551;-76
2022/10/26 08:57:40;;;;;;;8.15;5.67;;;;;;;13.78;76.11;100078.71;1769783;79;20960;-78
2022/10/26 09:00:14;;;;;;;6.60;5.62;;;;;;;13.75;76.16;100089.98;1722630;81;21717;-75
2022/10/26 09:02:41;;;;;;;7.40;5.72;;;;;;;13.73;76.15;100089.30;1776822;78;21820;-77
2022/10/26 09:05:15;;;;;;;233.68;22.30;;;;;;;13.74;76.28;100086.15;1774516;79;21099;-76
2022/10/26 09:08:03;;;;;;;7.12;5.80;;;;;;;13.70;76.17;100080.31;1780929;78;21464;-77
2022/10/26 09:11:09;;;;;;;8.60;6.00;;;;;;;13.69;76.17;100096.37;1767687;79;21056;-77
2022/10/26 09:13:47;;;;;;;7.12;6.42;;;;;;;13.68;76.35;100101.33;1770721;79;21132;-78
2022/10/26 09:16:58;;;;;;;9.75;6.53;;;;;;;13.68;76.33;100100.00;1760829;78;21822;-76
2022/10/26 09:20:10;;;;;;;8.20;6.70;;;;;;;13.63;76.26;100100.47;1719827;82;20997;-76
2022/10/26 09:23:02;;;;;;;26.12;10.10;;;;;;;13.62;76.43;100102.78;1752537;79;20969;-77
2022/10/26 09:25:39;;;;;;;30.70;9.00;;;;;;;13.63;76.68;100108.42;1796176;78;21003;-76
2022/10/26 09:28:16;;;;;;;9.38;7.40;;;;;;;13.64;76.81;100099.48;1769241;79;20984;-77
2022/10/26 09:30:44;;;;;;;9.35;7.78;;;;;;;13.68;77.06;100107.47;1787103;79;22555;-79
2022/10/26 09:33:16;;;;;;;8.45;7.65;;;;;;;13.73;77.23;100102.57;1792371;78;21015;-81
2022/10/26 09:35:55;;;;;;;9.28;6.47;;;;;;;13.81;77.38;100099.18;1747412;80;20976;-78
2022/10/26 09:38:30;;;;;;;112.03;78.90;;;;;;;13.95;77.52;100100.47;1728290;81;21628;-78
2022/10/26 09:41:17;;;;;;;52.60;33.38;;;;;;;14.11;77.35;100095.34;1797160;78;21467;-74
2022/10/26 09:44:07;;;;;;;39.65;26.82;;;;;;;14.26;76.96;100097.79;1786067;78;22397;-75
2022/10/26 09:46:57;;;;;;;64.42;45.28;;;;;;;14.40;76.47;100095.59;1758720;79;21031;-75
2022/10/26 09:49:31;;;;;;;19.30;14.03;;;;;;;14.46;75.97;100089.69;1798907;78;21066;-74
2022/10/26 09:51:58;;;;;;;10.55;9.10;;;;;;;14.53;75.56;100095.56;1793560;78;20971;-74
2022/10/26 09:54:25;;;;;;;10.65;9.20;;;;;;;14.62;75.51;100095.64;1740136;81;21036;-75
2022/10/26 09:56:54;;;;;;;299.35;33.48;;;;;;;14.68;75.22;100103.84;1706132;82;22515;-75
2022/10/26 09:59:23;;;;;;;1346.53;110.83;;;;;;;14.72;75.01;100097.70;1744439;80;20972;-77
2022/10/26 10:01:49;;;;;;;302.87;32.73;;;;;;;14.72;74.30;100102.52;1790874;79;21820;-75
2022/10/26 10:04:25;;;;;;;9.95;6.30;;;;;;;14.74;74.11;100096.55;1785586;79;21047;-73
2022/10/26 10:07:03;;;;;;;7.75;5.28;;;;;;;14.76;73.90;100095.06;1786621;78;21024;-74
2022/10/26 10:09:31;;;;;;;8.70;5.62;;;;;;;14.76;73.66;100093.73;1796382;78;21362;-74
2022/10/26 10:12:01;;;;;;;7.05;5.12;;;;;;;14.75;73.44;100100.88;1796514;78;21016;-74
2022/10/26 10:14:34;;;;;;;6.90;5.12;;;;;;;14.70;72.91;100091.71;1786076;79;21033;-73
2022/10/26 10:17:07;;;;;;;6.92;5.80;;;;;;;14.62;72.84;100092.98;1785445;79;20999;-75
2022/10/26 10:19:35;;;;;;;8.00;5.87;;;;;;;14.56;72.95;100091.76;1800994;78;21099;-77
2022/10/26 10:22:18;;;;;;;7.62;5.53;;;;;;;14.49;72.85;100096.05;1799803;77;21980;-77
2022/10/26 10:24:59;;;;;;;6.03;5.17;;;;;;;14.41;73.16;100094.61;1804513;78;21116;-77
2022/10/26 10:27:27;;;;;;;8.73;5.17;;;;;;;14.35;73.35;100096.05;1785332;78;21005;-78
2022/10/26 10:29:55;;;;;;;6.83;5.58;;;;;;;14.37;73.59;100095.88;1770432;79;20933;-78
2022/10/26 10:32:30;;;;;;;7.08;5.22;;;;;;;14.38;73.73;100094.43;1770406;79;20957;-80
2022/10/26 10:35:01;;;;;;;5.72;5.12;;;;;;;14.38;73.83;100094.43;1781834;78;22524;-77
2022/10/26 10:37:33;;;;;;;8.83;5.58;;;;;;;14.37;74.03;100096.72;1780871;78;21365;-77
2022/10/26 10:40:22;;;;;;;8.15;5.53;;;;;;;14.37;74.13;100095.88;1766170;79;21032;-75
2022/10/26 10:42:51;;;;;;;6.45;4.97;;;;;;;14.35;74.29;100088.56;1774020;77;21051;-76
2022/10/26 10:45:28;;;;;;;6.92;5.33;;;;;;;14.38;74.50;100084.27;1756774;80;21126;-76
2022/10/26 10:48:04;;;;;;;5.12;4.53;;;;;;;14.39;74.53;100090.78;1762413;80;22504;-76
2022/10/26 10:50:31;;;;;;;7.15;4.40;;;;;;;14.43;74.60;100082.00;1752817;80;22804;-76
2022/10/26 10:53:35;;;;;;;4.62;4.17;;;;;;;14.49;74.72;100087.58;1791731;79;21555;-76
2022/10/26 10:56:41;;;;;;;4.78;4.20;;;;;;;14.57;74.69;100089.44;1785486;79;21068;-76
2022/10/26 10:59:34;;;;;;;4.30;3.70;;;;;;;14.65;74.22;100082.86;1780723;79;21085;-76
2022/10/26 11:02:15;;;;;;;4.47;4.08;;;;;;;14.77;74.31;100078.15;1763327;80;21995;-77
2022/10/26 11:05:21;;;;;;;4.37;3.60;;;;;;;14.92;74.22;100091.69;1779076;80;20830;-77
2022/10/26 11:08:03;;;;;;;3.90;3.47;;;;;;;15.03;73.88;100090.09;1758237;79;20965;-76
2022/10/26 11:10:34;;;;;;;5.75;3.52;;;;;;;15.13;73.30;100090.31;1785320;79;21029;-76
2022/10/26 11:13:24;;;;;;;4.28;3.42;;;;;;;15.20;72.82;100089.19;1780098;80;21378;-76
2022/10/26 11:15:55;;;;;;;5.22;3.25;;;;;;;15.28;72.53;100090.57;1780274;79;21826;-75
2022/10/26 11:18:27;;;;;;;4.80;3.22;;;;;;;15.30;71.91;100092.57;1757986;81;21373;-76
2022/10/26 11:21:22;;;;;;;4.17;2.70;;;;;;;15.38;71.78;100097.10;1728376;81;21023;-76
2022/10/26 11:24:12;;;;;;;3.83;2.98;;;;;;;15.44;70.80;100092.45;1753441;80;21030;-76
2022/10/26 11:26:47;;;;;;;3.42;3.10;;;;;;;15.50;70.67;100093.66;1732873;82;20973;-76
2022/10/26 11:29:32;;;;;;;4.67;2.90;;;;;;;15.52;69.72;100095.66;1740035;82;21852;-76
2022/10/26 11:32:04;;;;;;;4.28;2.95;;;;;;;15.45;69.30;100093.66;1755833;81;21483;-74
2022/10/26 11:34:59;;;;;;;3.25;2.95;;;;;;;15.40;69.15;100091.12;1732319;81;20981;-76
2022/10/26 11:37:37;;;;;;;44.03;6.47;;;;;;;15.32;68.80;100089.25;1709847;81;21174;-76
2022/10/26 11:40:28;;;;;;;6.83;3.00;;;;;;;15.21;68.62;100098.84;1702789;83;20955;-74
2022/10/26 11:43:40;;;;;;;4.37;2.90;;;;;;;15.17;68.90;100086.36;1703998;83;22422;-76
2022/10/26 11:46:19;;;;;;;4.37;3.10;;;;;;;15.35;68.95;100094.77;1692552;83;21665;-75